Mengxian, China
Current Conditions -  °F | °C
As of 5:00 PM on Sunday 26 Oct 2014 (Local Time) from ZHCC Reporting Station
Sand / Dust Storm Sand / Dust Storm  
Wind Chill: 70°   Ceiling: Unl
Heat Index: 70°   Visibility: 1.2mi
Dew Point: 48°   Wind: 13mph
Humidity: 46%   Direction: 30°NNE
Pressure: 30.15"   Gusts: NA
Location:  34.9°N, 112.78°E
Report Text: ZHCC 260900Z 03006MPS 360V060 2000 SA NSC 21/09 Q1021 BECMG3000
Loading
Personal Weather Stations






























Interactive Weather Map
Tropical Storm Tracking
New forecast layout! Learn more

10-Day Weather Forecast

Advertisements
Track Severe Weather on mobile